Grand Rapids, Canada
Current Conditions -  °F | °C
As of 10:00 PM on Saturday 20 Dec 2014 (Local Time) from CYNE Reporting Station
Haze Haze  
Wind Chill: 16°   Ceiling: 500
Heat Index: 23°   Visibility: 4mi
Dew Point: 21°   Wind: 6mph
Humidity: 93%   Direction: 170°S
Pressure: 29.83"   Gusts: NA
Location:  53.18°N, 99.28°W
Report Text: CYNE 210400Z AUTO 17005KT 4SM BR OVC005 M05/M06 A2983 RMK SLP119
Loading
Personal Weather Stations






























Interactive Weather Map New forecast layout! Learn more

10-Day Weather Forecast

Advertisements
Track Severe Weather on mobile